createdAt,value
2023-02-05T00:03:08.895Z,6.10
2023-02-05T00:08:10.074Z,6.09
2023-02-05T00:13:11.324Z,6.09
2023-02-05T00:18:12.617Z,6.07
2023-02-05T00:23:13.815Z,6.05
2023-02-05T00:28:15.083Z,6.02
2023-02-05T00:33:16.295Z,6.02
2023-02-05T00:38:17.458Z,5.99
2023-02-05T00:43:18.622Z,5.95
2023-02-05T00:48:19.866Z,5.95
2023-02-05T00:53:21.103Z,5.92
2023-02-05T00:58:22.340Z,5.92
2023-02-05T01:03:23.586Z,5.92
2023-02-05T01:08:24.782Z,5.91
2023-02-05T01:13:26.082Z,5.91
2023-02-05T01:18:27.341Z,5.88
2023-02-05T01:23:28.504Z,5.86
2023-02-05T01:28:29.713Z,5.79
2023-02-05T01:33:30.974Z,5.81
2023-02-05T01:38:32.144Z,5.84
2023-02-05T01:43:33.363Z,5.83
2023-02-05T01:48:34.591Z,5.81
2023-02-05T01:53:35.835Z,5.78
2023-02-05T01:58:37.081Z,5.75
2023-02-05T02:03:38.341Z,5.63
2023-02-05T02:08:39.546Z,5.58
2023-02-05T02:13:40.827Z,5.56
2023-02-05T02:18:42.091Z,5.49
2023-02-05T02:23:43.325Z,5.42
2023-02-05T02:28:44.565Z,5.39
2023-02-05T02:33:45.811Z,5.38
2023-02-05T02:38:47.013Z,5.37
2023-02-05T02:43:48.521Z,5.36
2023-02-05T02:48:49.718Z,5.42
2023-02-05T02:53:51.010Z,5.46
2023-02-05T02:58:52.234Z,5.46
2023-02-05T03:03:53.462Z,5.49
2023-02-05T03:08:54.752Z,5.55
2023-02-05T03:13:56.195Z,5.57
2023-02-05T03:18:57.435Z,5.59
2023-02-05T03:23:58.667Z,5.61
2023-02-05T03:28:59.951Z,5.63
2023-02-05T03:34:01.377Z,5.61
2023-02-05T03:39:02.620Z,5.59
2023-02-05T03:44:03.824Z,5.58
2023-02-05T03:49:05.036Z,5.57
2023-02-05T03:54:06.237Z,5.56
2023-02-05T03:59:07.510Z,5.55
2023-02-05T04:04:08.709Z,5.53
2023-02-05T04:09:09.871Z,5.51
2023-02-05T04:14:11.077Z,5.50
2023-02-05T04:19:12.239Z,5.53
2023-02-05T04:24:13.414Z,5.54
2023-02-05T04:29:14.702Z,5.52
2023-02-05T04:34:15.908Z,5.53
2023-02-05T04:39:17.143Z,5.55
2023-02-05T04:44:18.389Z,5.54
2023-02-05T04:49:19.597Z,5.54
2023-02-05T04:54:20.883Z,5.54
2023-02-05T04:59:22.412Z,5.55
2023-02-05T05:04:23.647Z,5.57
2023-02-05T05:09:25.289Z,5.53
2023-02-05T05:14:26.507Z,5.50
2023-02-05T05:19:27.667Z,5.52
2023-02-05T05:24:28.843Z,5.50
2023-02-05T05:29:30.173Z,5.45
2023-02-05T05:34:31.431Z,5.49
2023-02-05T05:39:51.467Z,5.53
2023-02-05T05:44:52.966Z,5.49
2023-02-05T05:49:54.179Z,5.53
2023-02-05T05:54:55.367Z,5.55
2023-02-05T05:59:56.611Z,5.58
2023-02-05T06:04:57.827Z,5.60
2023-02-05T06:09:59.041Z,5.59
2023-02-05T06:15:00.272Z,5.62
2023-02-05T06:20:01.494Z,5.63
2023-02-05T06:25:02.776Z,5.65
2023-02-05T06:30:04.244Z,5.73
2023-02-05T06:35:05.462Z,5.75
2023-02-05T06:40:06.676Z,5.78
2023-02-05T06:45:07.872Z,5.80
2023-02-05T06:50:09.052Z,5.83
2023-02-05T06:55:10.268Z,5.85
2023-02-05T07:00:11.494Z,5.89
2023-02-05T07:05:12.683Z,5.95
2023-02-05T07:10:13.855Z,5.99
2023-02-05T07:15:15.075Z,5.77
2023-02-05T07:20:16.785Z,6.05
2023-02-05T07:25:17.991Z,6.12
2023-02-05T07:30:19.163Z,6.18
2023-02-05T07:35:20.422Z,6.18
2023-02-05T07:40:21.600Z,6.21
2023-02-05T07:45:22.765Z,6.21
2023-02-05T07:50:23.920Z,6.25
2023-02-05T07:55:25.160Z,6.26
2023-02-05T08:00:26.383Z,6.26
2023-02-05T08:05:28.112Z,6.26
2023-02-05T08:10:29.337Z,6.27
2023-02-05T08:15:30.514Z,6.26
2023-02-05T08:20:31.800Z,6.25
2023-02-05T08:25:33.227Z,6.24
2023-02-05T08:30:34.680Z,6.23
2023-02-05T08:35:36.318Z,6.21
2023-02-05T08:40:37.787Z,6.16
2023-02-05T08:45:39.186Z,6.14
2023-02-05T08:50:40.451Z,6.10
2023-02-05T08:55:41.648Z,6.09
2023-02-05T09:00:42.850Z,6.09
2023-02-05T09:05:44.099Z,6.08
2023-02-05T09:10:45.368Z,6.07
2023-02-05T09:15:48.444Z,6.00
2023-02-05T09:20:49.868Z,5.86
2023-02-05T09:25:51.106Z,5.75
2023-02-05T09:30:52.360Z,5.74
2023-02-05T09:35:53.625Z,5.70
2023-02-05T09:40:55.515Z,5.58
2023-02-05T09:45:56.768Z,5.59
2023-02-05T09:50:58.190Z,5.65
2023-02-05T09:55:59.450Z,5.60
2023-02-05T10:01:01.820Z,5.59
2023-02-05T10:06:03.003Z,5.58
2023-02-05T10:11:04.238Z,5.57
2023-02-05T10:16:05.481Z,5.57
2023-02-05T10:21:06.693Z,5.58
2023-02-05T10:26:07.880Z,5.62
2023-02-05T10:31:09.146Z,5.59
2023-02-05T10:36:10.393Z,5.52
2023-02-05T10:41:11.575Z,5.62
2023-02-05T10:46:13.059Z,5.60
2023-02-05T10:51:14.910Z,5.54
2023-02-05T10:56:16.223Z,5.57
2023-02-05T11:01:17.552Z,5.54
2023-02-05T11:06:18.798Z,5.51
2023-02-05T11:11:19.963Z,5.56
2023-02-05T11:16:21.242Z,5.66
2023-02-05T11:21:22.491Z,5.73
2023-02-05T11:26:23.759Z,5.67
2023-02-05T11:31:28.184Z,5.71
2023-02-05T11:36:29.426Z,5.77
2023-02-05T11:41:30.643Z,5.77
2023-02-05T11:46:31.859Z,5.78
2023-02-05T11:51:33.034Z,5.76
2023-02-05T11:56:34.298Z,5.74
2023-02-05T12:01:35.546Z,5.72
2023-02-05T12:06:36.821Z,5.70
2023-02-05T12:11:57.960Z,5.72
2023-02-05T12:16:59.174Z,5.72
2023-02-05T12:22:00.374Z,5.74
2023-02-05T12:27:01.576Z,5.70
2023-02-05T12:32:04.701Z,5.60
2023-02-05T12:37:06.013Z,5.63
2023-02-05T12:42:07.657Z,5.63
2023-02-05T12:47:08.838Z,5.67
2023-02-05T12:52:10.004Z,5.65
2023-02-05T12:57:11.874Z,5.63
2023-02-05T13:02:13.153Z,5.58
2023-02-05T13:07:14.403Z,5.56
2023-02-05T13:12:15.585Z,5.57
2023-02-05T13:17:16.833Z,5.55
2023-02-05T13:22:36.876Z,5.53
2023-02-05T13:27:56.695Z,5.50
2023-02-05T13:32:57.882Z,5.47
2023-02-05T13:37:59.120Z,5.47
2023-02-05T13:43:00.295Z,5.51
2023-02-05T13:48:01.468Z,5.50
2023-02-05T13:53:03.936Z,5.47
2023-02-05T13:58:05.204Z,5.44
2023-02-05T14:03:08.532Z,5.43
2023-02-05T14:08:09.715Z,5.38
2023-02-05T14:13:10.978Z,5.32
2023-02-05T14:18:12.237Z,5.25
2023-02-05T14:23:13.423Z,5.24
2023-02-05T14:28:14.740Z,5.21
2023-02-05T14:33:15.997Z,5.19
2023-02-05T14:38:17.246Z,5.20
2023-02-05T14:43:18.486Z,5.23
2023-02-05T14:48:19.658Z,5.24
2023-02-05T14:53:20.835Z,5.19
2023-02-05T14:58:22.047Z,5.16
2023-02-05T15:03:23.363Z,5.13
2023-02-05T15:08:24.596Z,5.10
2023-02-05T15:13:26.259Z,5.07
2023-02-05T15:18:27.434Z,5.07
2023-02-05T15:23:28.661Z,5.08
2023-02-05T15:28:29.906Z,5.12
2023-02-05T15:33:31.111Z,5.16
2023-02-05T15:38:32.291Z,5.20
2023-02-05T15:43:33.544Z,5.23
2023-02-05T15:48:34.769Z,5.24
2023-02-05T15:53:36.056Z,5.26
2023-02-05T15:58:37.748Z,5.30
2023-02-05T16:03:38.972Z,5.30
2023-02-05T16:08:40.285Z,5.33
2023-02-05T16:13:41.453Z,5.34
2023-02-05T16:18:42.821Z,5.35
2023-02-05T16:23:44.035Z,5.35
2023-02-05T16:28:45.287Z,5.38
2023-02-05T16:33:46.511Z,5.42
2023-02-05T16:38:47.731Z,5.49
2023-02-05T16:43:49.518Z,5.52
2023-02-05T16:48:50.972Z,5.41
2023-02-05T16:53:52.158Z,5.35
2023-02-05T16:58:53.393Z,5.28
2023-02-05T17:03:54.682Z,5.24
2023-02-05T17:08:55.876Z,5.26
2023-02-05T17:13:57.063Z,5.17
2023-02-05T17:18:58.425Z,5.16
2023-02-05T17:24:01.551Z,5.25
2023-02-05T17:29:02.763Z,5.26
2023-02-05T17:34:04.005Z,5.19
2023-02-05T17:39:05.301Z,5.16
2023-02-05T17:44:07.040Z,5.15
2023-02-05T17:49:08.347Z,5.15
2023-02-05T17:54:09.595Z,5.16
2023-02-05T17:59:10.795Z,5.16
2023-02-05T18:04:12.609Z,5.16
2023-02-05T18:09:13.903Z,5.16
2023-02-05T18:14:15.208Z,5.17
2023-02-05T18:19:16.558Z,5.18
2023-02-05T18:24:17.765Z,5.20
2023-02-05T18:29:18.973Z,5.21
2023-02-05T18:34:20.318Z,5.21
2023-02-05T18:39:21.542Z,5.17
2023-02-05T18:44:22.752Z,5.19
2023-02-05T18:49:24.006Z,5.18
2023-02-05T18:54:25.213Z,5.18
2023-02-05T18:59:26.471Z,5.17
2023-02-05T19:04:27.881Z,5.18
2023-02-05T19:09:29.389Z,5.17
2023-02-05T19:14:30.626Z,5.18
2023-02-05T19:19:31.837Z,5.19
2023-02-05T19:24:33.141Z,5.18
2023-02-05T19:29:38.120Z,5.21
2023-02-05T19:34:40.808Z,5.25
2023-02-05T19:39:42.028Z,5.24
2023-02-05T19:44:43.442Z,5.25
2023-02-05T19:49:44.683Z,5.22
2023-02-05T19:54:45.885Z,5.24
2023-02-05T19:59:47.067Z,5.27
2023-02-05T20:04:48.255Z,5.27
2023-02-05T20:09:49.599Z,5.29
2023-02-05T20:14:50.758Z,5.28
2023-02-05T20:19:55.157Z,5.27
2023-02-05T20:24:58.446Z,5.25
2023-02-05T20:30:18.351Z,5.23
2023-02-05T20:35:20.712Z,5.18
2023-02-05T20:40:21.866Z,5.14
2023-02-05T20:45:23.078Z,5.08
2023-02-05T20:50:24.254Z,5.00
2023-02-05T20:55:25.481Z,4.93
2023-02-05T21:00:27.164Z,4.83
2023-02-05T21:05:28.485Z,4.68
2023-02-05T21:10:31.589Z,4.62
2023-02-05T21:15:33.414Z,4.53
2023-02-05T21:20:34.978Z,4.45
2023-02-05T21:25:36.402Z,4.37
2023-02-05T21:30:37.933Z,4.32
2023-02-05T21:35:39.476Z,4.35
2023-02-05T21:40:40.677Z,4.29
2023-02-05T21:45:41.919Z,4.26
2023-02-05T21:50:43.150Z,4.19
2023-02-05T21:55:44.354Z,4.17
2023-02-05T22:00:45.602Z,4.16
2023-02-05T22:05:46.845Z,4.10
2023-02-05T22:10:48.011Z,4.07
2023-02-05T22:15:49.167Z,4.00
2023-02-05T22:20:50.357Z,3.98
2023-02-05T22:25:51.602Z,3.91
2023-02-05T22:30:52.872Z,3.85
2023-02-05T22:35:54.109Z,3.84
2023-02-05T22:40:55.342Z,3.80
2023-02-05T22:45:56.567Z,3.81
2023-02-05T22:50:57.916Z,3.77
2023-02-05T22:55:59.156Z,3.69
2023-02-05T23:01:00.437Z,3.64
2023-02-05T23:06:01.661Z,3.58
2023-02-05T23:11:02.856Z,3.49
2023-02-05T23:16:04.105Z,3.42
2023-02-05T23:21:05.350Z,3.40
2023-02-05T23:26:06.624Z,3.41
2023-02-05T23:31:07.926Z,3.32
2023-02-05T23:36:09.372Z,3.30
2023-02-05T23:41:10.696Z,3.19
2023-02-05T23:46:11.974Z,3.13
2023-02-05T23:51:13.180Z,3.06
2023-02-05T23:56:14.427Z,3.01
